Time;durP1;ratioP1;P1;durP2;ratioP2;P2;SDS_P1;SDS_P2;PMS_P1;PMS_P2;Temp;Humidity;BMP_temperature;BMP_pressure;BME280_temperature;BME280_humidity;BME280_pressure;Samples;Min_cycle;Max_cycle;Signal;HPM_P1;HPM_P2
2023/04/29 00:00:10;;;;;;;10.73;7.57;;;;;;;8.83;100.00;95987.03;10453298;28;20257;-61
2023/04/29 00:05:13;;;;;;;10.93;8.10;;;;;;;8.67;100.00;96000.91;10453312;28;20208;-62
2023/04/29 00:10:13;;;;;;;9.53;8.17;;;;;;;8.66;100.00;96001.88;10452721;28;20310;-62
2023/04/29 00:15:13;;;;;;;10.90;8.20;;;;;;;8.49;100.00;96010.69;10452859;28;20273;-62
2023/04/29 00:20:14;;;;;;;10.83;8.17;;;;;;;8.49;100.00;96003.66;10452635;28;20203;-62
2023/04/29 00:25:15;;;;;;;12.60;8.20;;;;;;;8.48;100.00;96002.00;10452326;28;20223;-61
2023/04/29 00:30:16;;;;;;;9.03;7.33;;;;;;;8.70;100.00;95995.34;10452426;28;20622;-60
2023/04/29 00:35:16;;;;;;;9.30;7.63;;;;;;;8.64;100.00;95992.59;10450675;28;20212;-62
2023/04/29 00:40:17;;;;;;;9.90;6.33;;;;;;;8.82;100.00;95988.03;10452294;28;20219;-62
2023/04/29 00:45:17;;;;;;;7.90;6.27;;;;;;;8.75;100.00;95994.88;10433981;28;20203;-62
2023/04/29 00:50:18;;;;;;;9.27;7.50;;;;;;;8.73;100.00;95991.63;10451755;28;20230;-62
2023/04/29 00:55:18;;;;;;;9.07;6.90;;;;;;;8.93;100.00;95999.94;10451608;28;20259;-62
2023/04/29 01:00:20;;;;;;;8.83;6.23;;;;;;;9.24;100.00;96000.06;10450196;28;20681;-62
2023/04/29 01:05:20;;;;;;;8.30;6.40;;;;;;;9.45;100.00;96004.78;10453687;28;20207;-62
2023/04/29 01:10:28;;;;;;;6.23;5.63;;;;;;;9.53;100.00;96001.31;10460043;28;20701;-62
2023/04/29 01:15:32;;;;;;;6.07;5.30;;;;;;;9.70;100.00;95996.03;10495934;28;20253;-62
2023/04/29 01:20:33;;;;;;;6.83;4.97;;;;;;;9.71;100.00;95980.19;10466632;28;20620;-63
2023/04/29 01:25:34;;;;;;;6.33;5.67;;;;;;;9.42;100.00;95999.88;10482816;28;20238;-62
2023/04/29 01:31:08;;;;;;;5.70;4.13;;;;;;;9.14;100.00;96033.38;10482408;28;20215;-62
2023/04/29 01:36:21;;;;;;;7.23;4.27;;;;;;;9.06;100.00;96022.94;10482751;28;20282;-62
2023/04/29 01:41:28;;;;;;;6.00;4.83;;;;;;;9.03;100.00;96029.31;10482202;28;20850;-62
2023/04/29 01:46:38;;;;;;;6.93;5.10;;;;;;;9.04;100.00;96035.38;10482044;28;20210;-62
2023/04/29 01:51:39;;;;;;;9.60;7.27;;;;;;;9.09;100.00;96057.38;10465234;28;20218;-62
2023/04/29 01:56:39;;;;;;;12.10;7.77;;;;;;;9.08;100.00;96070.63;10481474;28;20239;-62
2023/04/29 02:01:49;;;;;;;9.03;6.80;;;;;;;9.06;100.00;96090.88;10481611;28;20567;-62
2023/04/29 02:06:51;;;;;;;9.20;6.20;;;;;;;9.07;100.00;96095.13;10480920;28;20238;-62
2023/04/29 02:11:52;;;;;;;7.93;6.20;;;;;;;9.01;100.00;96096.59;10499152;28;20219;-63
2023/04/29 02:16:53;;;;;;;13.33;6.73;;;;;;;8.82;100.00;96109.94;10480412;28;20231;-61
2023/04/29 02:21:53;;;;;;;9.47;7.07;;;;;;;8.81;100.00;96113.56;10480921;28;20223;-63
2023/04/29 02:26:54;;;;;;;10.93;7.40;;;;;;;8.72;100.00;96103.06;10480579;28;20223;-63
2023/04/29 02:31:55;;;;;;;10.67;7.40;;;;;;;8.62;100.00;96110.25;10480404;28;20262;-64
2023/04/29 02:36:55;;;;;;;11.13;8.20;;;;;;;8.49;100.00;96131.56;10498812;28;20753;-63
2023/04/29 02:41:56;;;;;;;10.90;7.37;;;;;;;8.58;100.00;96124.59;10479807;28;20274;-64
2023/04/29 02:46:56;;;;;;;12.10;7.87;;;;;;;8.50;100.00;96138.44;10492634;28;20208;-64
2023/04/29 02:51:57;;;;;;;9.00;6.83;;;;;;;8.52;100.00;96135.66;10438393;28;20188;-65
2023/04/29 02:56:58;;;;;;;8.33;5.73;;;;;;;8.59;100.00;96141.88;10438087;28;20323;-64
2023/04/29 03:01:58;;;;;;;8.53;5.77;;;;;;;8.53;100.00;96124.22;10456983;28;20669;-64
2023/04/29 03:06:58;;;;;;;10.07;7.13;;;;;;;8.35;100.00;96130.34;10479052;28;20211;-63
2023/04/29 03:12:01;;;;;;;9.13;6.53;;;;;;;8.39;100.00;96130.81;10478781;28;20565;-64
2023/04/29 03:17:02;;;;;;;10.13;6.17;;;;;;;8.39;100.00;96134.28;10496470;28;20650;-64
2023/04/29 03:22:02;;;;;;;9.40;7.00;;;;;;;8.23;100.00;96131.59;10478704;28;20281;-63
2023/04/29 03:27:03;;;;;;;11.87;6.90;;;;;;;8.26;100.00;96144.31;10478205;28;20211;-63
2023/04/29 03:32:04;;;;;;;11.00;7.23;;;;;;;8.27;100.00;96151.19;10478152;28;20572;-63
2023/04/29 03:37:05;;;;;;;10.70;6.80;;;;;;;8.32;100.00;96150.72;10478034;28;20215;-64
2023/04/29 03:42:06;;;;;;;7.77;5.47;;;;;;;8.35;100.00;96148.59;10477943;28;20649;-63
2023/04/29 03:47:07;;;;;;;7.80;5.77;;;;;;;8.37;100.00;96149.25;10477530;28;20298;-64
2023/04/29 03:52:08;;;;;;;8.17;5.70;;;;;;;8.31;100.00;96144.66;10477260;28;20660;-63
2023/04/29 03:57:09;;;;;;;7.60;6.33;;;;;;;8.33;100.00;96141.91;10476872;28;20277;-63
2023/04/29 04:02:09;;;;;;;7.90;5.70;;;;;;;8.34;100.00;96139.13;10476548;28;20183;-64
2023/04/29 04:07:10;;;;;;;9.20;6.17;;;;;;;8.40;100.00;96140.31;10476512;28;20203;-63
2023/04/29 04:12:30;;;;;;;12.27;7.53;;;;;;;8.45;100.00;96151.09;10494584;28;20692;-63
2023/04/29 04:17:31;;;;;;;7.50;6.03;;;;;;;8.57;100.00;96147.28;10476633;28;20203;-63
2023/04/29 04:22:31;;;;;;;8.27;7.00;;;;;;;8.53;100.00;96152.94;10476414;28;20187;-64
2023/04/29 04:27:47;;;;;;;10.37;7.90;;;;;;;8.71;100.00;96153.69;10494248;28;20614;-63
2023/04/29 04:32:57;;;;;;;8.73;7.37;;;;;;;8.82;100.00;96154.34;10476279;28;20703;-62
2023/04/29 04:37:58;;;;;;;9.43;8.07;;;;;;;8.78;100.00;96151.25;10476301;28;20209;-62
2023/04/29 04:42:59;;;;;;;22.57;12.53;;;;;;;8.84;100.00;96150.59;10475768;28;20629;-63
2023/04/29 04:48:00;;;;;;;22.37;13.27;;;;;;;9.21;100.00;96146.75;10476024;28;20249;-62
2023/04/29 04:53:04;;;;;;;18.70;13.97;;;;;;;9.39;100.00;96137.94;10475544;28;20191;-63
2023/04/29 04:58:16;;;;;;;21.80;16.30;;;;;;;9.55;100.00;96127.47;10525806;22;20753;-72
2023/04/29 05:03:17;;;;;;;24.20;17.70;;;;;;;9.63;100.00;96131.88;10533656;28;20368;-72
2023/04/29 05:08:17;;;;;;;23.37;17.77;;;;;;;9.89;100.00;96125.63;10535247;28;20747;-72
2023/04/29 05:13:20;;;;;;;27.07;20.77;;;;;;;10.00;100.00;96109.59;10536011;28;20178;-72
2023/04/29 05:18:21;;;;;;;27.20;18.43;;;;;;;10.03;100.00;96109.25;10518522;28;20679;-72
2023/04/29 05:23:24;;;;;;;23.53;17.63;;;;;;;10.16;100.00;96106.91;10517267;28;20183;-71
2023/04/29 05:28:24;;;;;;;23.67;18.20;;;;;;;9.91;100.00;96090.47;10519246;28;20689;-71
2023/04/29 05:33:25;;;;;;;25.03;18.40;;;;;;;9.87;100.00;96099.63;10501382;28;20537;-71
2023/04/29 05:38:27;;;;;;;22.83;16.87;;;;;;;9.99;100.00;96108.75;10511807;28;20203;-71
2023/04/29 05:43:37;;;;;;;24.00;18.07;;;;;;;9.95;100.00;96115.34;10502409;28;20210;-71
2023/04/29 05:48:38;;;;;;;28.87;19.67;;;;;;;9.95;100.00;96114.50;10502092;28;20664;-71
2023/04/29 05:53:39;;;;;;;27.17;18.93;;;;;;;10.06;100.00;96115.94;10482639;28;20190;-70
2023/04/29 05:58:39;;;;;;;26.40;19.30;;;;;;;10.13;100.00;96115.09;10534901;28;20256;-71
2023/04/29 06:03:41;;;;;;;24.40;17.73;;;;;;;10.05;100.00;96109.91;10552197;28;20235;-70
2023/04/29 06:09:03;;;;;;;22.97;16.17;;;;;;;10.20;100.00;96107.41;10537966;28;20229;-70
2023/04/29 06:14:05;;;;;;;23.60;16.80;;;;;;;10.40;100.00;96107.00;10538323;28;20194;-69
2023/04/29 06:19:05;;;;;;;21.23;15.53;;;;;;;10.47;100.00;96105.34;10541172;28;20670;-70
2023/04/29 06:24:06;;;;;;;21.35;15.40;;;;;;;10.86;100.00;96102.69;10540804;28;20650;-69
2023/04/29 06:29:07;;;;;;;19.60;14.82;;;;;;;11.03;100.00;96100.78;10537466;28;20581;-69
2023/04/29 06:34:10;;;;;;;20.65;14.95;;;;;;;11.17;100.00;96104.44;10543033;28;20270;-69
2023/04/29 06:39:20;;;;;;;19.60;14.13;;;;;;;11.13;100.00;96099.72;10535185;28;21591;-69
2023/04/29 06:44:37;;;;;;;19.67;14.27;;;;;;;11.01;100.00;96101.94;10527181;28;20566;-69
2023/04/29 06:49:58;;;;;;;16.02;11.70;;;;;;;11.19;100.00;96105.09;10513032;28;20210;-69
2023/04/29 06:54:58;;;;;;;17.67;10.75;;;;;;;11.04;100.00;96112.91;10521066;28;20291;-68
2023/04/29 06:59:59;;;;;;;13.20;10.07;;;;;;;10.97;100.00;96114.56;10527572;28;20281;-69
2023/04/29 07:05:00;;;;;;;12.50;9.65;;;;;;;10.83;100.00;96115.34;10532487;28;20305;-68
2023/04/29 07:10:00;;;;;;;15.65;11.55;;;;;;;10.99;100.00;96123.06;10533981;28;20338;-69
2023/04/29 07:15:00;;;;;;;19.17;11.98;;;;;;;11.11;100.00;96122.69;10533121;28;20221;-68
2023/04/29 07:20:01;;;;;;;17.45;12.35;;;;;;;11.23;100.00;96129.16;10538015;28;20182;-69
2023/04/29 07:25:02;;;;;;;12.30;9.68;;;;;;;11.43;100.00;96142.59;10531336;28;20221;-69
2023/04/29 07:30:03;;;;;;;16.02;10.50;;;;;;;11.45;100.00;96139.81;10519087;28;20226;-69
2023/04/29 07:35:04;;;;;;;10.73;8.68;;;;;;;11.27;100.00;96140.94;10550176;28;20218;-70
2023/04/29 07:40:05;;;;;;;11.20;8.50;;;;;;;10.83;100.00;96157.25;10533744;28;20611;-69
2023/04/29 07:45:06;;;;;;;7.88;6.25;;;;;;;10.63;100.00;96167.34;10533174;28;20730;-70
2023/04/29 07:50:07;;;;;;;7.03;5.70;;;;;;;10.22;100.00;96175.28;10536975;28;20202;-70
2023/04/29 07:55:08;;;;;;;4.30;3.90;;;;;;;10.36;100.00;96179.84;10513626;28;20246;-69
2023/04/29 08:00:09;;;;;;;4.50;4.03;;;;;;;10.08;100.00;96184.66;10516643;28;20195;-69
2023/04/29 08:05:16;;;;;;;5.85;5.07;;;;;;;10.43;100.00;96193.91;10565673;28;20275;-71
2023/04/29 08:10:17;;;;;;;6.80;5.57;;;;;;;10.58;100.00;96186.19;10536279;28;20218;-70
2023/04/29 08:15:17;;;;;;;8.30;6.32;;;;;;;10.48;100.00;96191.59;10527064;28;20221;-69
2023/04/29 08:20:17;;;;;;;11.57;8.63;;;;;;;10.76;100.00;96188.53;10514736;28;20217;-69
2023/04/29 08:25:18;;;;;;;11.93;8.30;;;;;;;11.30;100.00;96205.31;10508905;28;20202;-69
2023/04/29 08:30:18;;;;;;;13.20;9.55;;;;;;;11.12;100.00;96200.31;10516717;28;20699;-69
2023/04/29 08:35:19;;;;;;;10.13;8.70;;;;;;;11.05;100.00;96198.41;10535037;28;20252;-69
2023/04/29 08:40:19;;;;;;;11.43;9.65;;;;;;;11.35;100.00;96209.06;10526632;28;20263;-68
2023/04/29 08:45:22;;;;;;;10.07;9.02;;;;;;;11.10;100.00;96207.56;10533793;28;20214;-68
2023/04/29 08:50:22;;;;;;;11.05;9.93;;;;;;;11.36;100.00;96213.31;10523812;28;20213;-68
2023/04/29 08:55:23;;;;;;;10.02;9.02;;;;;;;11.80;100.00;96205.78;10532231;28;20233;-68
2023/04/29 09:00:23;;;;;;;11.15;9.60;;;;;;;11.76;100.00;96205.31;10531636;28;20839;-68
2023/04/29 09:05:25;;;;;;;12.27;10.95;;;;;;;11.75;100.00;96199.25;10533116;28;20217;-68
2023/04/29 09:10:26;;;;;;;13.23;11.75;;;;;;;11.82;100.00;96194.09;10533194;28;20305;-67
2023/04/29 09:15:27;;;;;;;12.82;11.48;;;;;;;12.03;100.00;96193.47;10532512;28;20205;-66
2023/04/29 09:20:28;;;;;;;12.05;10.85;;;;;;;12.34;100.00;96195.13;10531997;28;20194;-66
2023/04/29 09:25:30;;;;;;;12.85;10.40;;;;;;;11.51;100.00;96192.38;10532868;28;20756;-67
2023/04/29 09:30:30;;;;;;;10.63;9.52;;;;;;;11.68;100.00;96198.31;10535539;28;20218;-66
2023/04/29 09:35:31;;;;;;;12.43;11.23;;;;;;;11.32;100.00;96212.03;10516794;28;20285;-67
2023/04/29 09:40:33;;;;;;;11.55;10.45;;;;;;;11.42;100.00;96209.16;10519529;28;20248;-67
2023/04/29 09:45:40;;;;;;;13.13;11.77;;;;;;;11.86;100.00;96211.13;10521728;28;20264;-67
2023/04/29 09:50:42;;;;;;;11.32;10.23;;;;;;;12.73;100.00;96206.38;10519102;28;20955;-68
2023/04/29 09:55:51;;;;;;;10.52;9.48;;;;;;;13.20;100.00;96203.31;10518834;28;20287;-67
2023/04/29 10:00:52;;;;;;;11.48;10.38;;;;;;;13.46;100.00;96202.00;10518253;28;20260;-68
2023/04/29 10:05:52;;;;;;;9.48;8.57;;;;;;;13.27;100.00;96202.56;10516076;28;20217;-68
2023/04/29 10:10:56;;;;;;;9.07;7.32;;;;;;;11.98;100.00;96229.94;10516074;28;20443;-67
2023/04/29 10:16:01;;;;;;;12.45;7.55;;;;;;;10.96;100.00;96253.66;10498614;28;20234;-68
2023/04/29 10:21:03;;;;;;;8.43;6.35;;;;;;;10.34;100.00;96258.56;10551804;28;20712;-68
2023/04/29 10:26:05;;;;;;;9.95;8.60;;;;;;;10.15;100.00;96285.91;10578833;28;20214;-68
2023/04/29 10:31:06;;;;;;;11.03;9.40;;;;;;;9.86;100.00;96288.97;10553907;28;20268;-68
2023/04/29 10:36:08;;;;;;;12.90;9.50;;;;;;;10.03;100.00;96302.06;10516162;28;20202;-67
2023/04/29 10:41:14;;;;;;;10.07;7.17;;;;;;;10.38;100.00;96321.88;10530727;28;20614;-67
2023/04/29 10:46:18;;;;;;;9.73;7.47;;;;;;;10.60;100.00;96324.84;10537207;28;20210;-68
2023/04/29 10:51:31;;;;;;;14.52;11.32;;;;;;;10.57;100.00;96325.97;10539002;28;20222;-67
2023/04/29 10:56:40;;;;;;;14.85;11.30;;;;;;;10.76;100.00;96308.25;10559911;22;20633;-61
2023/04/29 11:01:42;;;;;;;17.80;11.38;;;;;;;11.04;100.00;96293.75;10531088;28;20556;-59
2023/04/29 11:06:53;;;;;;;16.25;11.10;;;;;;;11.75;100.00;96295.53;10530003;28;20214;-61
2023/04/29 11:12:04;;;;;;;10.40;7.93;;;;;;;11.72;100.00;96288.81;10526659;28;20217;-62
2023/04/29 11:17:16;;;;;;;9.65;8.27;;;;;;;11.61;100.00;96291.84;10518417;28;20720;-62
2023/04/29 11:22:16;;;;;;;11.85;9.52;;;;;;;11.69;100.00;96286.53;10515065;28;20191;-62
2023/04/29 11:27:18;;;;;;;13.93;9.80;;;;;;;11.97;100.00;96291.31;10512437;28;20210;-63
2023/04/29 11:32:22;;;;;;;12.10;10.05;;;;;;;11.69;100.00;96291.78;10514170;28;20194;-61
2023/04/29 11:37:24;;;;;;;12.93;10.70;;;;;;;11.89;100.00;96293.97;10513052;28;20210;-62
2023/04/29 11:42:24;;;;;;;13.27;11.05;;;;;;;12.39;100.00;96292.59;10512412;28;20188;-63
2023/04/29 11:47:29;;;;;;;13.10;11.02;;;;;;;13.09;100.00;96282.66;10512769;28;20271;-62
2023/04/29 11:52:29;;;;;;;13.05;10.43;;;;;;;12.74;100.00;96271.06;10512366;28;20254;-62
2023/04/29 11:57:30;;;;;;;12.55;10.60;;;;;;;12.80;100.00;96276.44;10511475;28;20295;-62
2023/04/29 12:02:31;;;;;;;12.88;10.93;;;;;;;11.71;100.00;96304.75;10513180;28;20252;-61
2023/04/29 12:07:31;;;;;;;12.05;10.10;;;;;;;11.40;100.00;96313.44;10509873;28;20215;-60
2023/04/29 12:12:35;;;;;;;12.63;9.70;;;;;;;10.90;100.00;96318.03;10511663;28;20211;-61
2023/04/29 12:17:35;;;;;;;11.55;9.55;;;;;;;10.70;100.00;96328.06;10509825;28;20238;-61
2023/04/29 12:22:36;;;;;;;16.25;11.32;;;;;;;10.51;100.00;96334.50;10508388;28;20207;-61
2023/04/29 12:27:40;;;;;;;15.07;12.05;;;;;;;10.78;100.00;96333.31;10510466;28;20792;-60
2023/04/29 12:32:40;;;;;;;15.17;11.33;;;;;;;10.94;100.00;96337.69;10510926;28;20198;-61
2023/04/29 12:37:40;;;;;;;14.73;12.00;;;;;;;10.76;100.00;96335.28;10520265;28;20689;-60
2023/04/29 12:42:43;;;;;;;12.30;10.50;;;;;;;11.60;100.00;96343.50;10510243;28;20294;-61
2023/04/29 12:47:44;;;;;;;12.00;9.35;;;;;;;11.73;100.00;96331.63;10511179;28;20215;-63
2023/04/29 12:52:44;;;;;;;10.30;7.88;;;;;;;11.62;100.00;96340.69;10519498;28;20255;-61
2023/04/29 12:57:44;;;;;;;9.55;8.48;;;;;;;11.37;100.00;96356.53;10510537;28;20222;-62
2023/04/29 13:02:46;;;;;;;10.63;8.35;;;;;;;11.19;100.00;96351.56;10518064;28;20197;-62
2023/04/29 13:07:46;;;;;;;7.85;7.05;;;;;;;11.27;100.00;96363.81;10532660;28;20309;-60
2023/04/29 13:12:47;;;;;;;9.80;8.63;;;;;;;11.01;100.00;96369.28;10539507;28;20282;-61
2023/04/29 13:17:47;;;;;;;12.23;9.18;;;;;;;11.42;100.00;96371.78;10521001;28;20213;-63
2023/04/29 13:22:47;;;;;;;12.30;8.20;;;;;;;11.59;100.00;96377.75;10516896;28;20532;-62
2023/04/29 13:27:48;;;;;;;8.45;7.60;;;;;;;11.40;100.00;96368.50;10519178;28;20214;-62
2023/04/29 13:32:48;;;;;;;14.63;10.90;;;;;;;10.39;100.00;96398.66;10518880;28;20189;-61
2023/04/29 13:37:49;;;;;;;12.25;10.35;;;;;;;10.51;100.00;96397.34;10520887;28;20211;-63
2023/04/29 13:42:49;;;;;;;10.93;8.80;;;;;;;11.20;100.00;96397.75;10518643;28;20220;-63
2023/04/29 13:47:50;;;;;;;9.80;8.52;;;;;;;10.84;100.00;96390.28;10522004;28;20590;-61
2023/04/29 13:52:50;;;;;;;13.25;10.13;;;;;;;10.09;100.00;96409.56;10518248;28;20302;-63
2023/04/29 13:57:52;;;;;;;14.07;10.40;;;;;;;10.23;100.00;96415.13;10521351;28;20245;-59
2023/04/29 14:02:52;;;;;;;14.25;10.68;;;;;;;10.43;100.00;96415.66;10534287;28;20726;-62
2023/04/29 14:07:52;;;;;;;19.25;12.98;;;;;;;10.34;100.00;96418.28;10536015;28;20272;-62
2023/04/29 14:12:53;;;;;;;17.67;13.40;;;;;;;10.18;100.00;96428.69;10514080;28;20270;-61
2023/04/29 14:17:53;;;;;;;28.13;18.63;;;;;;;9.59;100.00;96439.97;10514485;28;20272;-60
2023/04/29 14:22:54;;;;;;;26.25;19.83;;;;;;;9.52;100.00;96451.22;10514926;28;20277;-62
2023/04/29 14:27:54;;;;;;;30.13;19.67;;;;;;;9.40;100.00;96463.75;10529900;28;20399;-63
2023/04/29 14:32:55;;;;;;;30.20;18.40;;;;;;;9.17;100.00;96469.47;10538940;28;20186;-61
2023/04/29 14:37:55;;;;;;;29.17;18.67;;;;;;;9.13;100.00;96481.22;10538657;28;20215;-61
2023/04/29 14:42:55;;;;;;;27.93;17.90;;;;;;;8.85;100.00;96480.53;10538617;28;20302;-63
2023/04/29 14:47:56;;;;;;;31.37;19.07;;;;;;;8.71;100.00;96501.00;10539490;28;20222;-62
2023/04/29 14:52:57;;;;;;;29.40;17.67;;;;;;;8.85;100.00;96506.66;10539731;28;20250;-61
2023/04/29 14:57:57;;;;;;;27.90;17.93;;;;;;;8.84;100.00;96494.56;10520429;28;20590;-61
2023/04/29 15:02:57;;;;;;;27.60;17.73;;;;;;;8.92;100.00;96502.47;10497131;28;20195;-62
2023/04/29 15:08:00;;;;;;;25.23;17.77;;;;;;;8.84;100.00;96507.63;10496988;28;20409;-63
2023/04/29 15:13:00;;;;;;;28.90;20.23;;;;;;;8.86;100.00;96508.28;10496694;28;20226;-63
2023/04/29 15:18:01;;;;;;;24.70;17.03;;;;;;;8.87;100.00;96509.94;10496723;28;20211;-63
2023/04/29 15:23:02;;;;;;;26.67;17.33;;;;;;;8.88;100.00;96499.34;10495849;28;20192;-61
2023/04/29 15:28:03;;;;;;;24.67;17.07;;;;;;;8.63;100.00;96505.31;10495816;28;20700;-62
2023/04/29 15:33:04;;;;;;;27.90;17.57;;;;;;;9.01;100.00;96517.22;10496486;28;20278;-63
2023/04/29 15:38:04;;;;;;;27.37;16.77;;;;;;;9.19;100.00;96511.13;10512974;28;20198;-59
2023/04/29 15:43:04;;;;;;;22.63;16.08;;;;;;;9.42;100.00;96514.91;10521301;28;20313;-62
2023/04/29 15:48:05;;;;;;;23.17;15.40;;;;;;;9.57;100.00;96511.72;10509943;28;20222;-61
2023/04/29 15:53:05;;;;;;;20.93;14.47;;;;;;;9.79;100.00;96502.53;10495258;28;20191;-61
2023/04/29 15:58:06;;;;;;;21.42;15.02;;;;;;;9.96;100.00;96509.44;10495021;28;20254;-63
2023/04/29 16:03:06;;;;;;;18.25;13.15;;;;;;;10.12;100.00;96500.84;10506575;28;20248;-61
2023/04/29 16:08:06;;;;;;;20.15;13.52;;;;;;;10.51;100.00;96505.53;10537337;28;20218;-62
2023/04/29 16:13:07;;;;;;;18.85;13.63;;;;;;;10.39;100.00;96512.06;10535594;28;20229;-62
2023/04/29 16:18:07;;;;;;;18.35;13.98;;;;;;;10.21;100.00;96520.00;10536438;28;20198;-62
2023/04/29 16:23:07;;;;;;;20.27;13.50;;;;;;;10.26;100.00;96517.75;10536731;28;20281;-63
2023/04/29 16:28:08;;;;;;;20.13;14.45;;;;;;;9.98;100.00;96523.22;10535873;28;20214;-63
2023/04/29 16:33:08;;;;;;;19.02;14.70;;;;;;;9.87;100.00;96531.31;10536440;28;20197;-63
2023/04/29 16:38:08;;;;;;;21.07;16.33;;;;;;;9.60;100.00;96538.41;10535551;28;20301;-62
2023/04/29 16:43:13;;;;;;;21.97;16.23;;;;;;;9.31;100.00;96548.31;10535882;28;20191;-62
2023/04/29 16:48:13;;;;;;;23.63;17.97;;;;;;;9.21;100.00;96557.06;10535736;28;20223;-62
2023/04/29 16:53:13;;;;;;;25.37;17.50;;;;;;;9.38;100.00;96562.44;10535232;28;20739;-63
2023/04/29 16:58:14;;;;;;;27.17;17.37;;;;;;;9.42;100.00;96566.38;10563836;22;20728;-67
2023/04/29 17:03:14;;;;;;;25.00;16.67;;;;;;;9.34;100.00;96574.16;10534498;28;20277;-67
2023/04/29 17:08:15;;;;;;;24.07;16.67;;;;;;;9.29;100.00;96592.91;10535630;28;20221;-67
2023/04/29 17:13:15;;;;;;;25.23;17.67;;;;;;;9.17;100.00;96592.31;10535487;28;20194;-67
2023/04/29 17:18:15;;;;;;;26.33;17.47;;;;;;;9.17;100.00;96602.78;10535333;28;20297;-67
2023/04/29 17:23:16;;;;;;;25.10;17.37;;;;;;;9.08;100.00;96609.75;10535482;28;20216;-67
2023/04/29 17:28:16;;;;;;;22.60;16.03;;;;;;;9.17;100.00;96615.84;10534833;28;20232;-67
2023/04/29 17:33:17;;;;;;;19.47;16.60;;;;;;;9.12;100.00;96619.88;10535265;28;20692;-67
2023/04/29 17:38:17;;;;;;;21.43;15.03;;;;;;;9.16;100.00;96623.81;10534905;28;20712;-67
2023/04/29 17:43:17;;;;;;;22.60;15.00;;;;;;;9.09;100.00;96628.84;10535167;28;20214;-66
2023/04/29 17:48:19;;;;;;;18.83;14.10;;;;;;;9.13;100.00;96630.19;10537716;28;20218;-67
2023/04/29 17:53:19;;;;;;;16.93;13.93;;;;;;;9.13;100.00;96630.19;10542540;28;20247;-67
2023/04/29 17:58:20;;;;;;;18.87;14.63;;;;;;;9.06;100.00;96644.81;10518576;28;20230;-67
2023/04/29 18:03:22;;;;;;;16.60;13.87;;;;;;;9.06;100.00;96650.03;10500202;28;20191;-67
2023/04/29 18:08:22;;;;;;;17.20;14.37;;;;;;;9.06;100.00;96652.66;10499836;28;20760;-67
2023/04/29 18:13:23;;;;;;;21.07;15.17;;;;;;;8.96;100.00;96659.72;10499716;28;20336;-67
2023/04/29 18:18:23;;;;;;;17.20;14.33;;;;;;;8.94;100.00;96665.09;10499241;28;20210;-67
2023/04/29 18:23:23;;;;;;;23.80;15.97;;;;;;;8.81;100.00;96667.28;10499183;28;20223;-67
2023/04/29 18:28:24;;;;;;;19.33;15.30;;;;;;;8.80;100.00;96668.22;10498800;28;20222;-66
2023/04/29 18:33:25;;;;;;;18.43;15.03;;;;;;;8.84;100.00;96678.25;10498904;28;20199;-67
2023/04/29 18:38:25;;;;;;;20.60;16.00;;;;;;;8.79;100.00;96690.09;10498450;28;20662;-67
2023/04/29 18:43:27;;;;;;;26.87;16.50;;;;;;;8.77;100.00;96682.38;10498655;28;20226;-66
2023/04/29 18:48:28;;;;;;;21.17;17.10;;;;;;;8.64;100.00;96692.38;10497951;28;20278;-66
2023/04/29 18:53:29;;;;;;;23.97;18.00;;;;;;;8.58;100.00;96704.22;10497948;28;20191;-66
2023/04/29 18:58:30;;;;;;;28.83;18.97;;;;;;;8.59;100.00;96716.31;10515403;28;20230;-65
2023/04/29 19:03:30;;;;;;;23.17;15.77;;;;;;;8.67;100.00;96724.25;10539372;28;20327;-66
2023/04/29 19:08:30;;;;;;;20.90;15.50;;;;;;;8.51;100.00;96730.06;10539057;28;20230;-66
2023/04/29 19:13:31;;;;;;;20.40;15.20;;;;;;;8.52;100.00;96736.94;10538931;28;20186;-66
2023/04/29 19:18:31;;;;;;;20.83;17.10;;;;;;;8.61;100.00;96740.47;10539163;28;20295;-66
2023/04/29 19:23:31;;;;;;;22.97;17.17;;;;;;;8.53;100.00;96749.03;10538751;28;20183;-65
2023/04/29 19:28:32;;;;;;;25.13;17.40;;;;;;;8.54;100.00;96745.44;10538555;28;20291;-65
2023/04/29 19:33:32;;;;;;;22.93;17.37;;;;;;;8.53;100.00;96758.63;10538487;28;20226;-67
2023/04/29 19:38:33;;;;;;;21.57;17.03;;;;;;;8.44;100.00;96751.66;10538005;28;20267;-65
2023/04/29 19:43:33;;;;;;;21.37;17.73;;;;;;;8.53;100.00;96767.31;10538477;28;20269;-66
2023/04/29 19:48:33;;;;;;;20.40;15.93;;;;;;;8.49;100.00;96768.53;10537948;28;20225;-66
2023/04/29 19:53:35;;;;;;;24.90;18.20;;;;;;;8.36;100.00;96765.38;10538039;28;20199;-67
2023/04/29 19:58:35;;;;;;;20.83;18.00;;;;;;;8.38;100.00;96771.31;10537433;28;20230;-67
2023/04/29 20:03:38;;;;;;;21.77;17.23;;;;;;;8.39;100.00;96775.53;10537673;28;20265;-67
2023/04/29 20:08:38;;;;;;;26.23;19.00;;;;;;;8.39;100.00;96779.00;10537325;28;20773;-66
2023/04/29 20:13:39;;;;;;;27.87;18.50;;;;;;;8.42;100.00;96780.47;10536746;28;20289;-66
2023/04/29 20:18:39;;;;;;;26.10;18.63;;;;;;;8.32;100.00;96783.13;10537133;28;20214;-66
2023/04/29 20:23:40;;;;;;;25.73;18.53;;;;;;;8.25;100.00;96787.25;10536581;28;20257;-67
2023/04/29 20:28:40;;;;;;;20.70;17.07;;;;;;;8.36;100.00;96791.50;10536669;28;20301;-66
2023/04/29 20:33:40;;;;;;;23.30;18.10;;;;;;;8.33;100.00;96783.94;10536324;28;20201;-66
2023/04/29 20:38:41;;;;;;;23.70;16.97;;;;;;;8.38;100.00;96785.16;10518265;28;20297;-67
2023/04/29 20:43:41;;;;;;;19.33;15.60;;;;;;;8.42;100.00;96787.50;10536894;28;20190;-66
2023/04/29 20:48:42;;;;;;;22.30;16.50;;;;;;;8.28;100.00;96770.50;10535928;28;20236;-65
2023/04/29 20:53:42;;;;;;;26.40;16.40;;;;;;;8.38;100.00;96776.53;10535995;28;20202;-67
2023/04/29 20:58:42;;;;;;;19.87;15.60;;;;;;;8.33;100.00;96769.13;10535522;28;20249;-67
2023/04/29 21:03:43;;;;;;;20.27;14.67;;;;;;;8.42;100.00;96780.47;10536055;28;20229;-66
2023/04/29 21:08:43;;;;;;;24.97;17.87;;;;;;;8.20;100.00;96785.06;10542156;28;20218;-66
2023/04/29 21:13:48;;;;;;;21.53;17.63;;;;;;;8.17;100.00;96782.72;10535552;28;20198;-67
2023/04/29 21:18:49;;;;;;;22.20;17.33;;;;;;;8.32;100.00;96772.69;10535383;28;20232;-66
2023/04/29 21:23:49;;;;;;;22.80;18.40;;;;;;;8.23;100.00;96789.19;10539252;28;20201;-66
2023/04/29 21:28:50;;;;;;;21.33;17.20;;;;;;;8.15;100.00;96786.47;10543450;28;20218;-66
2023/04/29 21:33:50;;;;;;;24.27;17.80;;;;;;;8.25;100.00;96787.25;10543390;28;20200;-67
2023/04/29 21:38:51;;;;;;;24.83;18.47;;;;;;;8.17;100.00;96789.75;10543171;28;20202;-66
2023/04/29 21:43:53;;;;;;;22.67;16.90;;;;;;;8.22;100.00;96790.13;10543015;28;20202;-66
2023/04/29 21:48:55;;;;;;;24.17;17.23;;;;;;;8.28;100.00;96788.75;10542828;28;20237;-66
2023/04/29 21:53:55;;;;;;;23.60;17.57;;;;;;;8.19;100.00;96793.88;10542718;28;20222;-66
2023/04/29 21:58:55;;;;;;;25.30;17.03;;;;;;;8.26;100.00;96790.72;10542238;28;20366;-66
2023/04/29 22:03:56;;;;;;;21.03;17.70;;;;;;;8.14;100.00;96790.84;10542395;28;20194;-66
2023/04/29 22:08:56;;;;;;;22.57;17.23;;;;;;;8.07;100.00;96797.59;10541748;28;20229;-66
2023/04/29 22:13:57;;;;;;;22.90;17.33;;;;;;;8.12;100.00;96795.38;10541943;28;20289;-67
2023/04/29 22:18:57;;;;;;;26.17;16.63;;;;;;;7.97;100.00;96804.59;10541620;28;20203;-67
2023/04/29 22:23:57;;;;;;;25.80;18.57;;;;;;;7.78;100.00;96803.63;10541406;28;20195;-67
2023/04/29 22:28:58;;;;;;;22.67;18.63;;;;;;;7.64;100.00;96806.63;10541295;28;20221;-66
2023/04/29 22:33:58;;;;;;;23.50;17.60;;;;;;;7.65;100.00;96811.72;10540642;28;20195;-67
2023/04/29 22:39:00;;;;;;;29.47;19.07;;;;;;;7.59;100.00;96816.66;10540871;28;20302;-67
2023/04/29 22:44:00;;;;;;;25.80;18.50;;;;;;;7.59;100.00;96821.88;10540527;28;20251;-67
2023/04/29 22:49:00;;;;;;;26.17;17.60;;;;;;;7.51;100.00;96825.16;10540413;28;20302;-66
2023/04/29 22:54:01;;;;;;;23.87;17.53;;;;;;;7.79;100.00;96820.09;10540247;28;20233;-66